sensor_id;sensor_type;location;lat;lon;timestamp;pressure;altitude;pressure_sealevel;temperature;humidity
77587;BME280;66744;49.716;17.158;2023-05-10T00:00:28;99125.47;;;7.82;66.81
77587;BME280;66744;49.716;17.158;2023-05-10T00:03:30;99119.25;;;7.78;67.23
77587;BME280;66744;49.716;17.158;2023-05-10T00:06:31;99122.00;;;7.78;67.17
77587;BME280;66744;49.716;17.158;2023-05-10T00:09:32;99115.06;;;7.74;66.41
77587;BME280;66744;49.716;17.158;2023-05-10T00:12:33;99113.88;;;7.75;67.24
77587;BME280;66744;49.716;17.158;2023-05-10T00:15:34;99113.50;;;7.73;67.23
77587;BME280;66744;49.716;17.158;2023-05-10T00:18:36;99119.47;;;7.64;67.30
77587;BME280;66744;49.716;17.158;2023-05-10T00:21:37;99109.13;;;7.52;68.26
77587;BME280;66744;49.716;17.158;2023-05-10T00:24:38;99107.56;;;7.51;68.42
77587;BME280;66744;49.716;17.158;2023-05-10T00:27:39;99106.50;;;7.45;68.37
77587;BME280;66744;49.716;17.158;2023-05-10T00:30:41;99101.44;;;7.44;67.62
77587;BME280;66744;49.716;17.158;2023-05-10T00:33:42;99110.44;;;7.41;68.14
77587;BME280;66744;49.716;17.158;2023-05-10T00:36:44;99110.75;;;7.46;69.02
77587;BME280;66744;49.716;17.158;2023-05-10T00:39:45;99104.72;;;7.32;68.29
77587;BME280;66744;49.716;17.158;2023-05-10T00:42:46;99106.81;;;7.20;70.00
77587;BME280;66744;49.716;17.158;2023-05-10T00:45:48;99096.72;;;7.17;69.12
77587;BME280;66744;49.716;17.158;2023-05-10T00:48:49;99097.84;;;7.20;69.98
77587;BME280;66744;49.716;17.158;2023-05-10T00:51:51;99092.44;;;7.16;69.17
77587;BME280;66744;49.716;17.158;2023-05-10T00:54:52;99095.53;;;7.18;68.86
77587;BME280;66744;49.716;17.158;2023-05-10T00:57:53;99088.91;;;7.16;69.50
77587;BME280;66744;49.716;17.158;2023-05-10T01:00:55;99088.56;;;7.14;69.71
77587;BME280;66744;49.716;17.158;2023-05-10T01:03:59;99086.69;;;7.07;69.73
77587;BME280;66744;49.716;17.158;2023-05-10T01:07:00;99077.41;;;7.01;68.94
77587;BME280;66744;49.716;17.158;2023-05-10T01:10:02;99077.44;;;6.98;69.97
77587;BME280;66744;49.716;17.158;2023-05-10T01:13:03;99079.19;;;6.85;69.45
77587;BME280;66744;49.716;17.158;2023-05-10T01:16:05;99078.97;;;6.68;71.16
77587;BME280;66744;49.716;17.158;2023-05-10T01:19:26;99073.22;;;6.59;69.92
77587;BME280;66744;49.716;17.158;2023-05-10T01:33:18;99072.03;;;6.60;71.48
77587;BME280;66744;49.716;17.158;2023-05-10T01:36:29;99070.88;;;6.61;71.94
77587;BME280;66744;49.716;17.158;2023-05-10T01:39:39;99063.13;;;6.56;71.27
77587;BME280;66744;49.716;17.158;2023-05-10T01:42:54;99067.91;;;6.45;72.22
77587;BME280;66744;49.716;17.158;2023-05-10T01:46:04;99062.16;;;6.36;72.57
77587;BME280;66744;49.716;17.158;2023-05-10T01:49:20;99060.94;;;6.44;71.96
77587;BME280;66744;49.716;17.158;2023-05-10T01:52:28;99059.00;;;6.41;71.19
77587;BME280;66744;49.716;17.158;2023-05-10T01:55:34;99057.50;;;6.37;71.87
77587;BME280;66744;49.716;17.158;2023-05-10T01:58:36;99059.97;;;6.21;70.95
77587;BME280;66744;49.716;17.158;2023-05-10T02:01:41;99056.50;;;6.20;70.69
77587;BME280;66744;49.716;17.158;2023-05-10T02:04:44;99056.50;;;6.20;71.51
77587;BME280;66744;49.716;17.158;2023-05-10T02:07:47;99063.06;;;6.26;71.38
77587;BME280;66744;49.716;17.158;2023-05-10T02:10:52;99048.69;;;6.22;71.40
77587;BME280;66744;49.716;17.158;2023-05-10T02:13:55;99046.47;;;6.10;71.77
77587;BME280;66744;49.716;17.158;2023-05-10T02:17:04;99053.84;;;6.13;72.79
77587;BME280;66744;49.716;17.158;2023-05-10T02:20:06;99052.19;;;6.23;72.00
77587;BME280;66744;49.716;17.158;2023-05-10T02:23:09;99048.72;;;6.19;72.75
77587;BME280;66744;49.716;17.158;2023-05-10T02:26:11;99042.78;;;6.27;72.15
77587;BME280;66744;49.716;17.158;2023-05-10T02:29:14;99037.34;;;6.24;72.35
77587;BME280;66744;49.716;17.158;2023-05-10T02:32:17;99044.81;;;6.20;72.58
77587;BME280;66744;49.716;17.158;2023-05-10T02:35:19;99034.63;;;6.24;71.67
77587;BME280;66744;49.716;17.158;2023-05-10T02:38:22;99036.19;;;6.25;71.89
77587;BME280;66744;49.716;17.158;2023-05-10T02:41:25;99035.78;;;6.26;70.48
77587;BME280;66744;49.716;17.158;2023-05-10T02:44:28;99035.03;;;6.22;71.05
77587;BME280;66744;49.716;17.158;2023-05-10T02:47:31;99034.78;;;6.09;71.72
77587;BME280;66744;49.716;17.158;2023-05-10T02:50:33;99030.50;;;6.08;72.94
77587;BME280;66744;49.716;17.158;2023-05-10T02:53:38;99026.28;;;6.00;71.65
77587;BME280;66744;49.716;17.158;2023-05-10T02:56:45;99034.16;;;5.91;72.25
77587;BME280;66744;49.716;17.158;2023-05-10T02:59:48;99029.88;;;5.94;72.87
77587;BME280;66744;49.716;17.158;2023-05-10T03:02:49;99031.06;;;5.89;72.27
77587;BME280;66744;49.716;17.158;2023-05-10T03:05:50;99021.47;;;5.71;72.68
77587;BME280;66744;49.716;17.158;2023-05-10T03:08:54;99025.00;;;5.68;73.06
77587;BME280;66744;49.716;17.158;2023-05-10T03:15:17;99025.78;;;5.68;73.94
77587;BME280;66744;49.716;17.158;2023-05-10T03:18:48;99022.66;;;5.70;73.57
77587;BME280;66744;49.716;17.158;2023-05-10T03:21:53;99017.22;;;5.70;74.16
77587;BME280;66744;49.716;17.158;2023-05-10T03:24:56;99017.59;;;5.68;72.59
77587;BME280;66744;49.716;17.158;2023-05-10T03:28:01;99016.44;;;5.66;73.36
77587;BME280;66744;49.716;17.158;2023-05-10T03:31:05;99009.78;;;5.70;72.94
77587;BME280;66744;49.716;17.158;2023-05-10T03:34:08;99015.19;;;5.77;72.06
77587;BME280;66744;49.716;17.158;2023-05-10T03:37:10;99003.63;;;5.63;74.12
77587;BME280;66744;49.716;17.158;2023-05-10T03:40:11;99009.06;;;5.66;74.46
77587;BME280;66744;49.716;17.158;2023-05-10T03:43:15;99012.16;;;5.65;74.32
77587;BME280;66744;49.716;17.158;2023-05-10T03:46:17;99016.44;;;5.66;73.42
77587;BME280;66744;49.716;17.158;2023-05-10T03:49:19;99019.97;;;5.66;73.42
77587;BME280;66744;49.716;17.158;2023-05-10T03:52:20;99015.59;;;5.76;74.04
77587;BME280;66744;49.716;17.158;2023-05-10T03:55:23;99009.69;;;5.84;73.77
77587;BME280;66744;49.716;17.158;2023-05-10T03:58:25;99018.19;;;5.93;73.00
77587;BME280;66744;49.716;17.158;2023-05-10T04:01:26;99017.06;;;5.84;73.85
77587;BME280;66744;49.716;17.158;2023-05-10T04:04:28;99016.63;;;5.92;72.40
77587;BME280;66744;49.716;17.158;2023-05-10T04:07:29;99012.22;;;6.05;71.98
77587;BME280;66744;49.716;17.158;2023-05-10T04:10:30;99014.09;;;6.12;71.68
77587;BME280;66744;49.716;17.158;2023-05-10T04:13:32;99020.81;;;6.04;73.41
77587;BME280;66744;49.716;17.158;2023-05-10T04:16:33;99018.88;;;6.01;73.06
77587;BME280;66744;49.716;17.158;2023-05-10T04:19:34;99025.47;;;6.03;75.17
77587;BME280;66744;49.716;17.158;2023-05-10T04:22:36;99030.41;;;6.19;74.14
77587;BME280;66744;49.716;17.158;2023-05-10T04:25:37;99031.06;;;6.30;73.79
77587;BME280;66744;49.716;17.158;2023-05-10T04:28:38;99036.38;;;6.44;73.52
77587;BME280;66744;49.716;17.158;2023-05-10T04:31:39;99037.41;;;6.54;74.08
77587;BME280;66744;49.716;17.158;2023-05-10T04:34:40;99032.63;;;6.65;74.75
77587;BME280;66744;49.716;17.158;2023-05-10T04:37:42;99037.97;;;6.72;74.41
77587;BME280;66744;49.716;17.158;2023-05-10T04:40:44;99039.78;;;6.86;74.55
77587;BME280;66744;49.716;17.158;2023-05-10T04:43:45;99039.91;;;7.05;73.59
77587;BME280;66744;49.716;17.158;2023-05-10T04:46:47;99038.06;;;7.25;73.42
77587;BME280;66744;49.716;17.158;2023-05-10T04:49:48;99051.94;;;7.38;72.26
77587;BME280;66744;49.716;17.158;2023-05-10T04:52:49;99040.78;;;7.52;72.36
77587;BME280;66744;49.716;17.158;2023-05-10T04:55:52;99045.56;;;7.71;71.66
77587;BME280;66744;49.716;17.158;2023-05-10T04:58:53;99038.25;;;7.88;71.44
77587;BME280;66744;49.716;17.158;2023-05-10T05:01:54;99046.88;;;8.10;70.86
77587;BME280;66744;49.716;17.158;2023-05-10T05:04:56;99046.59;;;8.24;69.54
77587;BME280;66744;49.716;17.158;2023-05-10T05:07:58;99052.91;;;8.44;70.39
77587;BME280;66744;49.716;17.158;2023-05-10T05:11:00;99043.28;;;8.56;68.83
77587;BME280;66744;49.716;17.158;2023-05-10T05:14:01;99038.25;;;8.74;67.91
77587;BME280;66744;49.716;17.158;2023-05-10T05:17:02;99035.66;;;8.86;66.64
77587;BME280;66744;49.716;17.158;2023-05-10T05:20:05;99052.75;;;9.10;67.15
77587;BME280;66744;49.716;17.158;2023-05-10T05:23:06;99048.19;;;9.39;66.70
77587;BME280;66744;49.716;17.158;2023-05-10T05:26:08;99053.09;;;9.64;64.15
77587;BME280;66744;49.716;17.158;2023-05-10T05:29:09;99045.56;;;9.84;64.71
77587;BME280;66744;49.716;17.158;2023-05-10T05:32:10;99049.31;;;10.07;64.31
77587;BME280;66744;49.716;17.158;2023-05-10T05:35:12;99031.66;;;10.24;64.03
77587;BME280;66744;49.716;17.158;2023-05-10T05:38:13;99035.41;;;10.30;62.41
77587;BME280;66744;49.716;17.158;2023-05-10T05:41:15;99031.84;;;10.45;62.49
77587;BME280;66744;49.716;17.158;2023-05-10T05:44:16;99040.72;;;10.66;61.42
77587;BME280;66744;49.716;17.158;2023-05-10T05:47:17;99042.31;;;10.92;60.55
77587;BME280;66744;49.716;17.158;2023-05-10T05:50:18;99038.81;;;11.16;61.45
77587;BME280;66744;49.716;17.158;2023-05-10T05:53:21;99047.88;;;11.42;60.27
77587;BME280;66744;49.716;17.158;2023-05-10T05:56:22;99049.09;;;11.66;60.68
77587;BME280;66744;49.716;17.158;2023-05-10T05:59:25;99042.34;;;11.93;59.89
77587;BME280;66744;49.716;17.158;2023-05-10T06:02:27;99048.13;;;12.20;59.68
77587;BME280;66744;49.716;17.158;2023-05-10T06:05:28;99044.19;;;12.43;59.61
77587;BME280;66744;49.716;17.158;2023-05-10T06:08:29;99039.66;;;12.70;61.19
77587;BME280;66744;49.716;17.158;2023-05-10T06:11:30;99045.69;;;13.00;58.08
77587;BME280;66744;49.716;17.158;2023-05-10T06:14:33;99046.88;;;13.20;57.66
77587;BME280;66744;49.716;17.158;2023-05-10T06:17:34;99048.38;;;13.43;57.56
77587;BME280;66744;49.716;17.158;2023-05-10T06:20:35;99049.22;;;13.62;56.68
77587;BME280;66744;49.716;17.158;2023-05-10T06:23:36;99044.19;;;13.78;55.49
77587;BME280;66744;49.716;17.158;2023-05-10T06:26:37;99045.63;;;13.92;56.30
77587;BME280;66744;49.716;17.158;2023-05-10T06:29:39;99049.34;;;14.07;56.17
77587;BME280;66744;49.716;17.158;2023-05-10T06:32:40;99050.25;;;14.22;55.15
77587;BME280;66744;49.716;17.158;2023-05-10T06:35:42;99053.25;;;14.37;54.67
77587;BME280;66744;49.716;17.158;2023-05-10T06:38:43;99042.94;;;14.46;54.28
77587;BME280;66744;49.716;17.158;2023-05-10T06:41:45;99044.00;;;14.58;53.95
77587;BME280;66744;49.716;17.158;2023-05-10T06:44:46;99042.34;;;14.70;52.96
77587;BME280;66744;49.716;17.158;2023-05-10T06:47:47;99057.06;;;14.76;53.78
77587;BME280;66744;49.716;17.158;2023-05-10T06:50:48;99050.59;;;14.88;54.06
77587;BME280;66744;49.716;17.158;2023-05-10T06:53:50;99043.34;;;14.99;54.62
77587;BME280;66744;49.716;17.158;2023-05-10T06:56:51;99050.09;;;15.17;53.17
77587;BME280;66744;49.716;17.158;2023-05-10T06:59:52;99041.13;;;15.31;52.93
77587;BME280;66744;49.716;17.158;2023-05-10T07:02:54;99042.63;;;15.41;53.33
77587;BME280;66744;49.716;17.158;2023-05-10T07:06:03;99041.53;;;15.47;51.63
77587;BME280;66744;49.716;17.158;2023-05-10T07:09:04;99041.06;;;15.58;51.38
77587;BME280;66744;49.716;17.158;2023-05-10T07:12:06;99037.47;;;15.67;52.98
77587;BME280;66744;49.716;17.158;2023-05-10T07:15:07;99041.25;;;15.78;50.84
77587;BME280;66744;49.716;17.158;2023-05-10T07:18:09;99042.31;;;15.81;50.84
77587;BME280;66744;49.716;17.158;2023-05-10T07:21:10;99041.22;;;15.87;51.98
77587;BME280;66744;49.716;17.158;2023-05-10T07:24:12;99042.69;;;15.97;50.86
77587;BME280;66744;49.716;17.158;2023-05-10T07:27:15;99040.63;;;16.07;49.64
77587;BME280;66744;49.716;17.158;2023-05-10T07:30:16;99046.97;;;16.22;51.31
77587;BME280;66744;49.716;17.158;2023-05-10T07:33:19;99041.09;;;16.29;51.73
77587;BME280;66744;49.716;17.158;2023-05-10T07:36:21;99033.66;;;16.35;49.04
77587;BME280;66744;49.716;17.158;2023-05-10T07:39:22;99026.78;;;16.45;49.89
77587;BME280;66744;49.716;17.158;2023-05-10T07:42:25;99031.38;;;16.48;47.35
77587;BME280;66744;49.716;17.158;2023-05-10T07:45:30;99033.06;;;16.55;49.15
77587;BME280;66744;49.716;17.158;2023-05-10T07:48:32;99039.53;;;16.52;46.26
77587;BME280;66744;49.716;17.158;2023-05-10T07:51:38;99041.47;;;16.60;49.16
77587;BME280;66744;49.716;17.158;2023-05-10T07:54:59;99029.19;;;16.91;49.42
77587;BME280;66744;49.716;17.158;2023-05-10T07:58:03;99034.63;;;17.00;47.47
77587;BME280;66744;49.716;17.158;2023-05-10T08:01:15;99033.00;;;16.93;50.07
77587;BME280;66744;49.716;17.158;2023-05-10T08:04:17;99044.00;;;16.88;48.90
77587;BME280;66744;49.716;17.158;2023-05-10T08:07:19;99037.22;;;17.03;47.14
77587;BME280;66744;49.716;17.158;2023-05-10T08:10:21;99033.28;;;16.81;47.40
77587;BME280;66744;49.716;17.158;2023-05-10T08:13:22;99039.22;;;16.88;48.36
77587;BME280;66744;49.716;17.158;2023-05-10T08:16:23;99035.75;;;16.64;47.84
77587;BME280;66744;49.716;17.158;2023-05-10T08:19:24;99030.91;;;16.74;46.08
77587;BME280;66744;49.716;17.158;2023-05-10T08:22:26;99028.41;;;17.05;48.41
77587;BME280;66744;49.716;17.158;2023-05-10T08:25:27;99030.31;;;16.99;45.84
77587;BME280;66744;49.716;17.158;2023-05-10T08:28:28;99030.41;;;16.90;47.88
77587;BME280;66744;49.716;17.158;2023-05-10T08:31:30;99039.91;;;16.83;45.57
77587;BME280;66744;49.716;17.158;2023-05-10T08:34:31;99035.94;;;16.75;46.96
77587;BME280;66744;49.716;17.158;2023-05-10T08:37:34;99039.50;;;17.05;49.92
77587;BME280;66744;49.716;17.158;2023-05-10T08:40:37;99034.25;;;17.36;47.40
77587;BME280;66744;49.716;17.158;2023-05-10T08:43:38;99036.63;;;17.58;45.60
77587;BME280;66744;49.716;17.158;2023-05-10T08:46:43;99030.94;;;17.52;45.15
77587;BME280;66744;49.716;17.158;2023-05-10T08:49:47;99027.69;;;17.68;44.98
77587;BME280;66744;49.716;17.158;2023-05-10T08:52:55;99037.47;;;17.99;43.90
77587;BME280;66744;49.716;17.158;2023-05-10T08:55:58;99035.09;;;18.12;44.59
77587;BME280;66744;49.716;17.158;2023-05-10T08:59:00;99043.88;;;18.25;43.24
77587;BME280;66744;49.716;17.158;2023-05-10T09:02:02;99042.53;;;18.20;42.70
77587;BME280;66744;49.716;17.158;2023-05-10T09:05:06;99044.09;;;18.21;41.55
77587;BME280;66744;49.716;17.158;2023-05-10T09:08:08;99042.59;;;18.06;42.63
77587;BME280;66744;49.716;17.158;2023-05-10T09:11:11;99039.09;;;18.25;43.17
77587;BME280;66744;49.716;17.158;2023-05-10T09:14:12;99038.50;;;18.62;41.03
77587;BME280;66744;49.716;17.158;2023-05-10T09:17:14;99037.88;;;18.72;41.89
77587;BME280;66744;49.716;17.158;2023-05-10T09:20:15;99038.06;;;19.15;41.23
77587;BME280;66744;49.716;17.158;2023-05-10T09:23:18;99041.38;;;19.45;40.57
77587;BME280;66744;49.716;17.158;2023-05-10T09:26:23;99027.84;;;19.69;40.87
77587;BME280;66744;49.716;17.158;2023-05-10T09:29:24;99046.44;;;19.46;40.50
77587;BME280;66744;49.716;17.158;2023-05-10T09:32:37;99048.09;;;19.64;41.48
77587;BME280;66744;49.716;17.158;2023-05-10T09:35:38;99031.59;;;19.29;40.40
77587;BME280;66744;49.716;17.158;2023-05-10T09:38:51;99034.41;;;19.34;41.97
77587;BME280;66744;49.716;17.158;2023-05-10T09:41:53;99031.97;;;19.42;39.01
77587;BME280;66744;49.716;17.158;2023-05-10T09:45:03;99034.88;;;19.59;40.47
77587;BME280;66744;49.716;17.158;2023-05-10T09:48:05;99036.09;;;19.89;39.91
77587;BME280;66744;49.716;17.158;2023-05-10T09:51:18;99032.13;;;20.01;39.25
77587;BME280;66744;49.716;17.158;2023-05-10T09:54:19;99026.59;;;20.12;38.51
77587;BME280;66744;49.716;17.158;2023-05-10T09:57:22;99031.56;;;20.39;40.27
77587;BME280;66744;49.716;17.158;2023-05-10T10:00:24;99035.16;;;20.57;39.55
77587;BME280;66744;49.716;17.158;2023-05-10T10:03:25;99029.53;;;20.40;37.88
77587;BME280;66744;49.716;17.158;2023-05-10T10:06:40;99019.44;;;20.06;40.43
77587;BME280;66744;49.716;17.158;2023-05-10T10:09:42;99019.06;;;19.81;39.83
77587;BME280;66744;49.716;17.158;2023-05-10T10:12:43;99017.22;;;19.73;39.29
77587;BME280;66744;49.716;17.158;2023-05-10T10:15:45;99014.63;;;20.01;39.75
77587;BME280;66744;49.716;17.158;2023-05-10T10:18:49;99013.38;;;20.07;40.07
77587;BME280;66744;49.716;17.158;2023-05-10T10:21:52;99016.44;;;20.09;38.86
77587;BME280;66744;49.716;17.158;2023-05-10T10:24:54;99013.00;;;20.31;38.32
77587;BME280;66744;49.716;17.158;2023-05-10T10:27:59;99012.78;;;19.92;37.99
77587;BME280;66744;49.716;17.158;2023-05-10T10:31:45;99007.84;;;20.13;40.19
77587;BME280;66744;49.716;17.158;2023-05-10T10:34:50;99003.13;;;20.35;39.57
77587;BME280;66744;49.716;17.158;2023-05-10T10:37:51;98998.53;;;20.27;37.48
77587;BME280;66744;49.716;17.158;2023-05-10T10:41:07;99001.81;;;20.25;38.57
77587;BME280;66744;49.716;17.158;2023-05-10T10:47:39;98997.66;;;20.10;38.68
77587;BME280;66744;49.716;17.158;2023-05-10T10:50:58;98996.56;;;20.44;39.36
77587;BME280;66744;49.716;17.158;2023-05-10T10:54:11;99000.88;;;20.50;36.73
77587;BME280;66744;49.716;17.158;2023-05-10T10:57:14;98994.28;;;20.48;35.34
77587;BME280;66744;49.716;17.158;2023-05-10T11:03:28;98997.63;;;20.63;36.60
77587;BME280;66744;49.716;17.158;2023-05-10T11:06:35;99001.22;;;20.86;36.46
77587;BME280;66744;49.716;17.158;2023-05-10T11:09:39;98985.47;;;20.72;36.23
77587;BME280;66744;49.716;17.158;2023-05-10T11:12:59;98979.59;;;20.70;36.03
77587;BME280;66744;49.716;17.158;2023-05-10T11:19:21;98977.56;;;20.59;35.72
77587;BME280;66744;49.716;17.158;2023-05-10T11:22:28;98981.81;;;20.43;34.67
77587;BME280;66744;49.716;17.158;2023-05-10T11:25:29;98980.31;;;20.42;37.00
77587;BME280;66744;49.716;17.158;2023-05-10T11:28:31;98986.69;;;20.60;36.65
77587;BME280;66744;49.716;17.158;2023-05-10T11:31:41;98979.56;;;20.53;36.41
77587;BME280;66744;49.716;17.158;2023-05-10T11:34:47;98980.34;;;20.65;37.40
77587;BME280;66744;49.716;17.158;2023-05-10T11:38:01;98973.03;;;20.89;38.71
77587;BME280;66744;49.716;17.158;2023-05-10T11:41:03;98985.47;;;20.72;36.48
77587;BME280;66744;49.716;17.158;2023-05-10T11:44:10;98980.44;;;21.37;36.37
77587;BME280;66744;49.716;17.158;2023-05-10T11:47:11;98978.59;;;21.67;34.99
77587;BME280;66744;49.716;17.158;2023-05-10T11:50:13;98973.47;;;21.93;33.74
77587;BME280;66744;49.716;17.158;2023-05-10T11:53:14;98970.22;;;21.67;35.36
77587;BME280;66744;49.716;17.158;2023-05-10T11:56:16;98973.09;;;21.23;34.95
77587;BME280;66744;49.716;17.158;2023-05-10T11:59:17;98985.47;;;20.72;37.05
77587;BME280;66744;49.716;17.158;2023-05-10T12:02:18;98985.13;;;20.42;35.97
77587;BME280;66744;49.716;17.158;2023-05-10T12:05:21;98975.31;;;20.85;36.58
77587;BME280;66744;49.716;17.158;2023-05-10T12:08:24;98991.28;;;20.74;35.15
77587;BME280;66744;49.716;17.158;2023-05-10T12:11:27;98996.06;;;20.45;37.39
77587;BME280;66744;49.716;17.158;2023-05-10T12:14:35;98989.19;;;20.52;36.52
77587;BME280;66744;49.716;17.158;2023-05-10T12:17:37;98980.38;;;20.76;37.33
77587;BME280;66744;49.716;17.158;2023-05-10T12:20:40;98991.97;;;20.41;37.15
77587;BME280;66744;49.716;17.158;2023-05-10T12:23:41;98989.63;;;20.28;37.13
77587;BME280;66744;49.716;17.158;2023-05-10T12:26:45;98991.72;;;20.39;37.58
77587;BME280;66744;49.716;17.158;2023-05-10T12:29:49;98994.19;;;20.26;38.49
77587;BME280;66744;49.716;17.158;2023-05-10T12:32:52;98979.47;;;20.25;37.13
77587;BME280;66744;49.716;17.158;2023-05-10T12:35:54;98990.69;;;20.31;37.51
77587;BME280;66744;49.716;17.158;2023-05-10T12:39:02;98990.97;;;20.49;37.64
77587;BME280;66744;49.716;17.158;2023-05-10T12:42:04;98984.97;;;20.84;36.23
77587;BME280;66744;49.716;17.158;2023-05-10T12:45:06;98986.75;;;20.98;36.65
77587;BME280;66744;49.716;17.158;2023-05-10T12:48:10;98970.97;;;20.57;36.58
77587;BME280;66744;49.716;17.158;2023-05-10T12:51:12;98981.66;;;20.69;38.88
77587;BME280;66744;49.716;17.158;2023-05-10T12:54:16;98973.53;;;20.66;36.01
77587;BME280;66744;49.716;17.158;2023-05-10T12:57:17;98982.88;;;20.52;36.96
77587;BME280;66744;49.716;17.158;2023-05-10T13:00:19;98988.25;;;20.66;37.25
77587;BME280;66744;49.716;17.158;2023-05-10T13:03:20;98974.56;;;21.01;37.03
77587;BME280;66744;49.716;17.158;2023-05-10T13:06:22;98971.00;;;21.06;35.80
77587;BME280;66744;49.716;17.158;2023-05-10T13:09:26;98962.16;;;21.08;36.72
77587;BME280;66744;49.716;17.158;2023-05-10T13:12:30;98976.63;;;21.40;38.23
77587;BME280;66744;49.716;17.158;2023-05-10T13:15:31;98965.94;;;21.49;34.07
77587;BME280;66744;49.716;17.158;2023-05-10T13:18:33;98957.56;;;21.49;34.48
77587;BME280;66744;49.716;17.158;2023-05-10T13:21:34;98949.63;;;21.59;33.91
77587;BME280;66744;49.716;17.158;2023-05-10T13:24:38;98958.00;;;21.70;33.07
77587;BME280;66744;49.716;17.158;2023-05-10T13:27:40;98958.25;;;21.72;32.66
77587;BME280;66744;49.716;17.158;2023-05-10T13:30:41;98956.25;;;21.67;35.01
77587;BME280;66744;49.716;17.158;2023-05-10T13:33:42;98949.38;;;21.57;33.38
77587;BME280;66744;49.716;17.158;2023-05-10T13:36:44;98949.91;;;21.44;33.48
77587;BME280;66744;49.716;17.158;2023-05-10T13:39:45;98951.69;;;21.42;33.20
77587;BME280;66744;49.716;17.158;2023-05-10T13:42:47;98950.91;;;21.58;35.27
77587;BME280;66744;49.716;17.158;2023-05-10T13:45:48;98950.44;;;21.26;33.54
77587;BME280;66744;49.716;17.158;2023-05-10T13:48:50;98941.78;;;20.91;35.70
77587;BME280;66744;49.716;17.158;2023-05-10T13:51:52;98948.41;;;20.66;36.00
77587;BME280;66744;49.716;17.158;2023-05-10T13:54:53;98942.75;;;20.43;37.70
77587;BME280;66744;49.716;17.158;2023-05-10T13:57:56;98944.28;;;20.44;36.43
77587;BME280;66744;49.716;17.158;2023-05-10T14:00:57;98949.09;;;20.38;36.58
77587;BME280;66744;49.716;17.158;2023-05-10T14:03:59;98941.69;;;20.24;36.44
77587;BME280;66744;49.716;17.158;2023-05-10T14:07:02;98932.34;;;20.44;36.42
77587;BME280;66744;49.716;17.158;2023-05-10T14:10:03;98938.25;;;20.74;36.52
77587;BME280;66744;49.716;17.158;2023-05-10T14:13:05;98935.47;;;20.90;34.96
77587;BME280;66744;49.716;17.158;2023-05-10T14:16:07;98929.63;;;20.77;39.86
77587;BME280;66744;49.716;17.158;2023-05-10T14:19:09;98931.66;;;20.77;36.63
77587;BME280;66744;49.716;17.158;2023-05-10T14:22:10;98925.56;;;20.89;36.52
77587;BME280;66744;49.716;17.158;2023-05-10T14:25:12;98924.31;;;20.90;36.53
77587;BME280;66744;49.716;17.158;2023-05-10T14:28:14;98927.84;;;20.80;35.72
77587;BME280;66744;49.716;17.158;2023-05-10T14:31:15;98928.59;;;20.69;36.49
77587;BME280;66744;49.716;17.158;2023-05-10T14:34:17;98921.00;;;20.75;38.03
77587;BME280;66744;49.716;17.158;2023-05-10T14:37:19;98919.22;;;20.83;36.73
77587;BME280;66744;49.716;17.158;2023-05-10T14:40:24;98913.88;;;20.91;36.47
77587;BME280;66744;49.716;17.158;2023-05-10T14:43:26;98920.47;;;21.04;35.74
77587;BME280;66744;49.716;17.158;2023-05-10T14:46:28;98923.00;;;20.91;35.98
77587;BME280;66744;49.716;17.158;2023-05-10T14:49:30;98929.63;;;20.61;37.15
77587;BME280;66744;49.716;17.158;2023-05-10T14:52:37;98930.56;;;20.30;36.63
77587;BME280;66744;49.716;17.158;2023-05-10T14:55:38;98925.50;;;20.34;37.00
77587;BME280;66744;49.716;17.158;2023-05-10T14:58:44;98918.91;;;20.37;35.66
77587;BME280;66744;49.716;17.158;2023-05-10T15:01:49;98920.41;;;20.38;35.72
77587;BME280;66744;49.716;17.158;2023-05-10T15:04:53;98927.00;;;20.35;35.50
77587;BME280;66744;49.716;17.158;2023-05-10T15:07:58;98919.41;;;20.35;34.98
77587;BME280;66744;49.716;17.158;2023-05-10T15:10:59;98924.22;;;20.40;36.47
77587;BME280;66744;49.716;17.158;2023-05-10T15:14:04;98925.53;;;20.50;37.14
77587;BME280;66744;49.716;17.158;2023-05-10T15:17:06;98937.47;;;20.57;35.09
77587;BME280;66744;49.716;17.158;2023-05-10T15:20:10;98940.75;;;20.49;34.90
77587;BME280;66744;49.716;17.158;2023-05-10T15:23:12;98928.53;;;20.30;36.19
77587;BME280;66744;49.716;17.158;2023-05-10T15:26:13;98930.75;;;20.21;36.79
77587;BME280;66744;49.716;17.158;2023-05-10T15:29:17;98939.31;;;20.01;36.62
77587;BME280;66744;49.716;17.158;2023-05-10T15:32:21;98938.50;;;19.83;37.65
77587;BME280;66744;49.716;17.158;2023-05-10T15:35:22;98933.63;;;19.78;37.94
77587;BME280;66744;49.716;17.158;2023-05-10T15:38:24;98932.56;;;19.65;37.55
77587;BME280;66744;49.716;17.158;2023-05-10T15:41:25;98940.34;;;19.55;38.03
77587;BME280;66744;49.716;17.158;2023-05-10T15:44:29;98932.59;;;19.33;38.20
77587;BME280;66744;49.716;17.158;2023-05-10T15:47:31;98940.84;;;19.17;38.76
77587;BME280;66744;49.716;17.158;2023-05-10T15:50:33;98934.28;;;19.20;39.25
77587;BME280;66744;49.716;17.158;2023-05-10T15:53:38;98936.91;;;19.34;38.84
77587;BME280;66744;49.716;17.158;2023-05-10T15:56:42;98934.44;;;19.42;40.16
77587;BME280;66744;49.716;17.158;2023-05-10T15:59:46;98946.28;;;19.37;38.92
77587;BME280;66744;49.716;17.158;2023-05-10T16:02:47;98941.44;;;19.32;38.92
77587;BME280;66744;49.716;17.158;2023-05-10T16:05:48;98934.88;;;19.35;39.62
77587;BME280;66744;49.716;17.158;2023-05-10T16:08:49;98937.50;;;19.44;38.98
77587;BME280;66744;49.716;17.158;2023-05-10T16:11:51;98944.34;;;19.43;39.81
77587;BME280;66744;49.716;17.158;2023-05-10T16:14:52;98950.06;;;19.34;40.31
77587;BME280;66744;49.716;17.158;2023-05-10T16:17:54;98939.34;;;19.21;40.41
77587;BME280;66744;49.716;17.158;2023-05-10T16:20:55;98937.03;;;19.14;40.75
77587;BME280;66744;49.716;17.158;2023-05-10T16:23:58;98939.34;;;19.21;40.70